Time;durP1;ratioP1;P1;durP2;ratioP2;P2;SDS_P1;SDS_P2;PMS_P1;PMS_P2;Temp;Humidity;BMP_temperature;BMP_pressure;BME280_temperature;BME280_humidity;BME280_pressure;Samples;Min_cycle;Max_cycle;Signal;HPM_P1;HPM_P2
2023/06/17 00:02:18;;;;;;;11.57;10.15;;;15.40;99.90;;;;;;5010411;28;20045;-75
2023/06/17 00:04:43;;;;;;;12.25;10.35;;;15.30;99.90;;;;;;5014595;28;20060;-75
2023/06/17 00:07:10;;;;;;;13.10;10.50;;;15.30;99.90;;;;;;5036658;28;20041;-75
2023/06/17 00:09:36;;;;;;;11.73;9.60;;;15.30;99.90;;;;;;4993394;28;20099;-75
2023/06/17 00:12:02;;;;;;;17.10;10.82;;;15.30;99.90;;;;;;4993431;28;20478;-75
2023/06/17 00:14:28;;;;;;;13.18;10.43;;;15.30;99.90;;;;;;5059810;28;20035;-75
2023/06/17 00:16:54;;;;;;;12.95;10.30;;;15.30;99.90;;;;;;5041590;28;20059;-75
2023/06/17 00:19:20;;;;;;;13.05;10.65;;;15.40;99.90;;;;;;5048833;28;20044;-75
2023/06/17 00:21:49;;;;;;;19.75;11.25;;;15.50;99.90;;;;;;5029108;28;20575;-75
2023/06/17 00:24:21;;;;;;;12.00;10.50;;;15.50;99.90;;;;;;5062544;28;20040;-75
2023/06/17 00:26:48;;;;;;;12.48;10.80;;;15.60;99.90;;;;;;5019996;28;20076;-75
2023/06/17 00:29:15;;;;;;;12.60;10.10;;;15.60;99.90;;;;;;5061428;28;20061;-75
2023/06/17 00:31:41;;;;;;;15.68;11.48;;;15.60;99.90;;;;;;5050405;28;20053;-76
2023/06/17 00:34:06;;;;;;;18.83;12.98;;;15.70;99.90;;;;;;5051341;28;20045;-75
2023/06/17 00:36:32;;;;;;;12.55;10.98;;;15.70;99.90;;;;;;5042120;28;20155;-76
2023/06/17 00:38:58;;;;;;;15.98;10.90;;;15.70;99.90;;;;;;5051497;28;20037;-76
2023/06/17 00:41:23;;;;;;;14.05;12.43;;;15.80;99.90;;;;;;5039513;28;20045;-75
2023/06/17 00:43:49;;;;;;;16.27;12.52;;;15.80;99.90;;;;;;5013777;28;20037;-75
2023/06/17 00:46:30;;;;;;;15.63;12.55;;;15.90;99.90;;;;;;5036102;28;20071;-76
2023/06/17 00:48:56;;;;;;;15.27;13.27;;;15.90;99.90;;;;;;5059118;28;20059;-75
2023/06/17 00:51:22;;;;;;;18.63;15.18;;;16.00;99.90;;;;;;5064467;28;20115;-75
2023/06/17 00:53:48;;;;;;;26.83;16.80;;;16.00;99.90;;;;;;5038122;28;20381;-75
2023/06/17 00:56:17;;;;;;;22.83;16.23;;;15.90;99.90;;;;;;5045789;28;20139;-74
2023/06/17 00:58:43;;;;;;;20.90;15.30;;;15.90;99.90;;;;;;5066489;28;20035;-75
2023/06/17 01:01:09;;;;;;;26.10;17.60;;;15.90;99.90;;;;;;5064664;28;20064;-75
2023/06/17 01:03:35;;;;;;;23.23;17.35;;;15.90;99.90;;;;;;5035682;28;20044;-75
2023/06/17 01:06:07;;;;;;;25.45;18.30;;;15.80;99.90;;;;;;5018618;28;20052;-76
2023/06/17 01:08:52;;;;;;;23.60;18.75;;;15.60;99.90;;;;;;5022723;28;20044;-75
2023/06/17 01:11:20;;;;;;;27.27;19.95;;;15.60;99.90;;;;;;5042815;28;20043;-77
2023/06/17 01:13:49;;;;;;;23.90;18.52;;;15.50;99.90;;;;;;5030993;28;20059;-76
2023/06/17 01:16:16;;;;;;;28.90;19.77;;;15.50;99.90;;;;;;5039983;28;20055;-76
2023/06/17 01:18:48;;;;;;;26.48;19.98;;;15.40;99.90;;;;;;5034810;28;20052;-76
2023/06/17 01:21:17;;;;;;;28.52;21.20;;;15.40;99.90;;;;;;5044474;28;20156;-76
2023/06/17 01:23:44;;;;;;;32.95;20.98;;;15.40;99.90;;;;;;5039371;28;20067;-76
2023/06/17 01:26:10;;;;;;;28.20;21.67;;;15.30;99.90;;;;;;5061387;28;20570;-76
2023/06/17 01:28:38;;;;;;;32.30;22.55;;;15.30;99.90;;;;;;5042278;28;20067;-75
2023/06/17 01:31:04;;;;;;;27.02;20.75;;;15.30;99.90;;;;;;5039490;28;20045;-76
2023/06/17 01:33:31;;;;;;;26.02;21.35;;;15.30;99.90;;;;;;5032609;28;20151;-76
2023/06/17 01:36:09;;;;;;;28.13;20.80;;;15.40;99.90;;;;;;5049731;28;20437;-75
2023/06/17 01:38:43;;;;;;;30.55;21.38;;;15.40;99.90;;;;;;5037571;28;20080;-75
2023/06/17 01:41:24;;;;;;;28.58;20.80;;;15.40;99.90;;;;;;5052085;28;20146;-75
2023/06/17 01:43:51;;;;;;;32.90;23.05;;;15.30;99.90;;;;;;5035420;28;20051;-75
2023/06/17 01:46:17;;;;;;;29.95;21.58;;;15.20;99.90;;;;;;5022106;28;20064;-75
2023/06/17 01:48:44;;;;;;;30.00;23.02;;;15.20;99.90;;;;;;5044848;28;20068;-76
2023/06/17 01:51:10;;;;;;;31.63;22.58;;;15.20;99.90;;;;;;5058486;28;20044;-76
2023/06/17 01:53:36;;;;;;;29.50;22.17;;;15.20;99.90;;;;;;5021680;28;20049;-76
2023/06/17 01:56:02;;;;;;;31.80;23.60;;;15.20;99.90;;;;;;5021321;28;20055;-75
2023/06/17 01:58:27;;;;;;;28.38;22.08;;;15.10;99.90;;;;;;5038314;28;20119;-76
2023/06/17 02:00:53;;;;;;;27.92;21.08;;;15.20;99.90;;;;;;5027035;28;20836;-75
2023/06/17 02:03:19;;;;;;;31.70;22.88;;;15.20;99.90;;;;;;5028959;28;20113;-75
2023/06/17 02:05:45;;;;;;;28.63;21.90;;;15.20;99.90;;;;;;5035485;28;20136;-76
2023/06/17 02:08:12;;;;;;;32.63;22.05;;;15.30;99.90;;;;;;5035576;28;20045;-76
2023/06/17 02:10:38;;;;;;;32.40;23.05;;;15.20;99.90;;;;;;5065014;28;20497;-76
2023/06/17 02:13:04;;;;;;;31.50;23.38;;;15.30;99.90;;;;;;5019449;28;20451;-75
2023/06/17 02:15:30;;;;;;;32.60;23.20;;;15.30;99.90;;;;;;5020877;28;20055;-75
2023/06/17 02:17:56;;;;;;;33.63;23.52;;;15.30;99.90;;;;;;5032837;28;20040;-74
2023/06/17 02:20:23;;;;;;;30.13;22.52;;;15.30;99.90;;;;;;5020574;28;20076;-75
2023/06/17 02:22:49;;;;;;;34.80;22.95;;;15.40;99.90;;;;;;5059968;28;20045;-75
2023/06/17 02:25:15;;;;;;;28.45;22.67;;;15.50;99.90;;;;;;5019707;28;20049;-74
2023/06/17 02:27:41;;;;;;;29.10;22.80;;;15.40;99.90;;;;;;5026851;28;20045;-75
2023/06/17 02:30:09;;;;;;;34.38;24.30;;;15.40;99.90;;;;;;5024335;28;20051;-75
2023/06/17 02:32:35;;;;;;;30.90;23.05;;;15.30;99.90;;;;;;5021898;28;20090;-76
2023/06/17 02:35:02;;;;;;;29.63;23.60;;;15.30;99.90;;;;;;5042747;28;20041;-76
2023/06/17 02:37:28;;;;;;;27.08;22.63;;;15.30;99.90;;;;;;5028856;28;20051;-76
2023/06/17 02:39:54;;;;;;;29.95;24.10;;;15.20;99.90;;;;;;5050389;28;20044;-76
2023/06/17 02:42:21;;;;;;;29.40;22.67;;;15.20;99.90;;;;;;5032209;28;20052;-76
2023/06/17 02:44:46;;;;;;;29.27;21.75;;;15.30;99.90;;;;;;5021812;28;20041;-76
2023/06/17 02:47:12;;;;;;;32.65;22.23;;;15.30;99.90;;;;;;5057157;28;20050;-76
2023/06/17 02:49:38;;;;;;;31.55;22.42;;;15.30;99.90;;;;;;5062960;28;20033;-76
2023/06/17 02:52:05;;;;;;;29.08;22.02;;;15.40;99.90;;;;;;5015761;28;20057;-76
2023/06/17 02:54:30;;;;;;;31.48;24.13;;;15.40;99.90;;;;;;5068142;28;20126;-76
2023/06/17 02:56:56;;;;;;;29.13;23.48;;;15.30;99.90;;;;;;5036771;28;20049;-75
2023/06/17 02:59:23;;;;;;;32.45;23.77;;;15.20;99.90;;;;;;5068806;28;20051;-76
2023/06/17 03:01:49;;;;;;;27.88;22.80;;;15.20;99.90;;;;;;5044538;28;20079;-76
2023/06/17 03:04:15;;;;;;;31.52;24.00;;;15.20;99.90;;;;;;5044938;28;20048;-75
2023/06/17 03:06:41;;;;;;;29.90;23.30;;;15.30;99.90;;;;;;5023391;28;20279;-75
2023/06/17 03:09:10;;;;;;;29.92;24.88;;;15.30;99.90;;;;;;5045570;28;20032;-75
2023/06/17 03:11:36;;;;;;;34.30;23.83;;;15.30;99.90;;;;;;5041788;28;20412;-75
2023/06/17 03:14:03;;;;;;;30.88;23.13;;;15.30;99.90;;;;;;5020909;28;20051;-75
2023/06/17 03:16:31;;;;;;;28.88;22.23;;;15.20;99.90;;;;;;5031697;28;20071;-77
2023/06/17 03:18:58;;;;;;;34.22;24.88;;;15.30;99.90;;;;;;5041222;28;20160;-75
2023/06/17 03:21:25;;;;;;;30.92;23.30;;;15.30;99.90;;;;;;5051503;28;20047;-76
2023/06/17 03:23:51;;;;;;;37.17;26.15;;;15.30;99.90;;;;;;5041671;28;20484;-75
2023/06/17 03:26:17;;;;;;;29.58;23.83;;;15.20;99.90;;;;;;5024320;28;20068;-76
2023/06/17 03:28:43;;;;;;;37.45;26.25;;;15.10;99.90;;;;;;5042096;28;20071;-76
2023/06/17 03:31:10;;;;;;;31.17;24.10;;;15.10;99.90;;;;;;5039920;28;20041;-76
2023/06/17 03:33:36;;;;;;;32.45;24.92;;;15.20;99.90;;;;;;5030483;28;20142;-75
2023/06/17 03:36:02;;;;;;;32.63;23.98;;;15.20;99.90;;;;;;5032776;28;20491;-75
2023/06/17 03:38:28;;;;;;;33.70;23.77;;;15.30;99.90;;;;;;5040658;28;20071;-76
2023/06/17 03:40:53;;;;;;;30.92;24.33;;;15.30;99.90;;;;;;5063388;28;20036;-75
2023/06/17 03:43:19;;;;;;;31.90;24.77;;;15.40;99.90;;;;;;4990485;28;20045;-76
2023/06/17 03:45:45;;;;;;;31.42;24.70;;;15.30;99.90;;;;;;5052386;28;20076;-75
2023/06/17 03:48:11;;;;;;;31.38;23.92;;;15.30;99.90;;;;;;5042340;28;20041;-75
2023/06/17 03:50:36;;;;;;;32.65;25.23;;;15.30;99.90;;;;;;5037686;28;20059;-76
2023/06/17 03:53:02;;;;;;;33.55;23.25;;;15.30;99.90;;;;;;5016608;28;20422;-76
2023/06/17 03:55:29;;;;;;;36.03;24.35;;;15.30;99.90;;;;;;5004249;28;20042;-77
2023/06/17 03:57:54;;;;;;;30.90;23.70;;;15.30;99.90;;;;;;5003217;28;20089;-76
2023/06/17 04:00:20;;;;;;;31.90;25.83;;;15.40;99.90;;;;;;5004932;28;20049;-75
2023/06/17 04:02:47;;;;;;;33.55;25.40;;;15.30;99.90;;;;;;5020567;28;20121;-76
2023/06/17 04:05:13;;;;;;;32.92;23.58;;;15.30;99.90;;;;;;5018091;28;20041;-76
2023/06/17 04:07:40;;;;;;;31.30;23.52;;;15.30;99.90;;;;;;5032610;28;20064;-77
2023/06/17 04:10:09;;;;;;;31.25;24.63;;;15.40;99.90;;;;;;5030746;28;20045;-76
2023/06/17 04:12:41;;;;;;;31.38;23.85;;;15.50;99.90;;;;;;5005589;28;20048;-76
2023/06/17 04:15:08;;;;;;;30.45;24.20;;;15.40;99.90;;;;;;5012998;28;20608;-76
2023/06/17 04:17:36;;;;;;;29.95;23.50;;;15.30;99.90;;;;;;5015077;28;20038;-76
2023/06/17 04:20:10;;;;;;;30.83;23.52;;;15.30;99.90;;;;;;5027392;28;20048;-77
2023/06/17 04:22:37;;;;;;;30.00;24.58;;;15.30;99.90;;;;;;4996850;28;20058;-76
2023/06/17 04:25:04;;;;;;;35.03;26.05;;;15.30;99.90;;;;;;5014802;28;20037;-76
2023/06/17 04:27:29;;;;;;;31.80;25.80;;;15.30;99.90;;;;;;5016762;28;20294;-76
2023/06/17 04:29:56;;;;;;;33.47;24.92;;;15.30;99.90;;;;;;5019580;28;20479;-77
2023/06/17 04:32:26;;;;;;;32.13;24.83;;;15.30;99.90;;;;;;5019673;28;20506;-75
2023/06/17 04:34:53;;;;;;;34.55;23.67;;;15.30;99.90;;;;;;5016055;28;20045;-75
2023/06/17 04:37:20;;;;;;;33.95;24.63;;;15.40;99.90;;;;;;5025620;28;20041;-76
2023/06/17 04:39:46;;;;;;;34.53;24.85;;;15.50;99.90;;;;;;5017609;28;20222;-76
2023/06/17 04:42:16;;;;;;;31.20;25.15;;;15.50;99.90;;;;;;4986124;28;20209;-75
2023/06/17 04:44:43;;;;;;;34.92;26.45;;;15.50;99.90;;;;;;5002303;28;20046;-76
2023/06/17 04:47:10;;;;;;;34.33;25.30;;;15.50;99.90;;;;;;5020621;28;20057;-76
2023/06/17 04:49:41;;;;;;;33.47;24.83;;;15.50;99.90;;;;;;5000396;28;20050;-76
2023/06/17 04:52:08;;;;;;;33.95;26.17;;;15.50;99.90;;;;;;4988515;28;20050;-76
2023/06/17 04:54:34;;;;;;;37.60;26.40;;;15.50;99.90;;;;;;5053964;28;20036;-76
2023/06/17 04:57:01;;;;;;;36.17;26.40;;;15.50;99.90;;;;;;5035768;28;20542;-75
2023/06/17 04:59:27;;;;;;;33.90;25.30;;;15.40;99.90;;;;;;5047643;28;20104;-75
2023/06/17 05:01:52;;;;;;;32.13;25.00;;;15.40;99.90;;;;;;5004615;28;20077;-75
2023/06/17 05:04:18;;;;;;;34.63;26.73;;;15.40;99.90;;;;;;5052547;28;20182;-76
2023/06/17 05:06:45;;;;;;;32.88;25.35;;;15.30;99.90;;;;;;5041723;28;20522;-76
2023/06/17 05:09:10;;;;;;;33.92;25.02;;;15.30;99.90;;;;;;5039142;28;20871;-76
2023/06/17 05:11:38;;;;;;;35.47;24.67;;;15.30;99.90;;;;;;5021709;28;20128;-76
2023/06/17 05:14:04;;;;;;;34.28;24.52;;;15.30;99.90;;;;;;5064915;28;20090;-76
2023/06/17 05:16:30;;;;;;;30.75;24.23;;;15.30;99.90;;;;;;5023946;28;20033;-77
2023/06/17 05:18:56;;;;;;;33.40;25.13;;;15.40;99.90;;;;;;5027286;28;20048;-76
2023/06/17 05:21:23;;;;;;;30.02;24.17;;;15.40;99.90;;;;;;5030310;28;20064;-76
2023/06/17 05:23:48;;;;;;;34.25;24.63;;;15.40;99.90;;;;;;5023929;28;20122;-75
2023/06/17 05:26:14;;;;;;;30.10;23.17;;;15.40;99.90;;;;;;5021102;28;20093;-75
2023/06/17 05:28:40;;;;;;;29.55;23.63;;;15.40;99.90;;;;;;5003693;28;20088;-78
2023/06/17 05:31:06;;;;;;;30.40;24.23;;;15.50;99.90;;;;;;5043767;28;20051;-79
2023/06/17 05:33:31;;;;;;;33.33;25.73;;;15.50;99.90;;;;;;5009636;28;20062;-78
2023/06/17 05:36:00;;;;;;;33.67;26.10;;;15.50;99.90;;;;;;5043383;28;20630;-78
2023/06/17 05:38:26;;;;;;;33.20;25.10;;;15.40;99.90;;;;;;5028290;28;20119;-80
2023/06/17 05:40:52;;;;;;;38.92;26.73;;;15.30;99.90;;;;;;5047870;28;20632;-81
2023/06/17 05:43:18;;;;;;;35.22;25.50;;;15.30;99.90;;;;;;5021731;28;20071;-80
2023/06/17 05:45:44;;;;;;;33.38;26.27;;;15.20;99.90;;;;;;5033515;28;20052;-80
2023/06/17 05:48:10;;;;;;;32.20;24.90;;;15.20;99.90;;;;;;5027236;28;20040;-80
2023/06/17 05:50:36;;;;;;;40.90;26.88;;;15.30;99.90;;;;;;5009156;28;20056;-80
2023/06/17 05:53:02;;;;;;;34.72;26.92;;;15.30;99.90;;;;;;5056620;28;20064;-80
2023/06/17 05:55:27;;;;;;;37.53;26.83;;;15.30;99.90;;;;;;5038701;28;20576;-81
2023/06/17 05:57:54;;;;;;;36.53;26.33;;;15.30;99.90;;;;;;5026823;28;20067;-80
2023/06/17 06:00:20;;;;;;;37.58;27.85;;;15.40;99.90;;;;;;5042953;28;20118;-81
2023/06/17 06:02:46;;;;;;;36.78;28.08;;;15.30;99.90;;;;;;5034817;28;20768;-76
2023/06/17 06:05:12;;;;;;;37.05;26.33;;;15.30;99.90;;;;;;5004594;28;20049;-77
2023/06/17 06:07:41;;;;;;;31.70;25.98;;;15.30;99.90;;;;;;5042628;28;20109;-76
2023/06/17 06:10:07;;;;;;;33.15;25.02;;;15.40;99.90;;;;;;5028069;28;20059;-76
2023/06/17 06:12:33;;;;;;;35.35;27.45;;;15.40;99.90;;;;;;5008168;28;20101;-76
2023/06/17 06:14:59;;;;;;;32.78;25.20;;;15.50;99.90;;;;;;5047991;28;20076;-76
2023/06/17 06:17:25;;;;;;;31.33;25.75;;;15.50;99.90;;;;;;5035177;28;20040;-77
2023/06/17 06:19:51;;;;;;;33.92;25.85;;;15.50;99.90;;;;;;5052368;28;20070;-76
2023/06/17 06:22:18;;;;;;;31.20;25.77;;;15.50;99.90;;;;;;5017701;28;20087;-76
2023/06/17 06:24:43;;;;;;;33.80;26.08;;;15.50;99.90;;;;;;5020331;28;20044;-77
2023/06/17 06:27:09;;;;;;;32.22;25.10;;;15.60;99.90;;;;;;5018457;28;20415;-76
2023/06/17 06:29:35;;;;;;;30.75;24.50;;;15.60;99.90;;;;;;5036412;28;20047;-76
2023/06/17 06:32:02;;;;;;;31.58;24.00;;;15.60;99.90;;;;;;5050060;28;20068;-76
2023/06/17 06:34:28;;;;;;;32.83;23.73;;;15.70;99.90;;;;;;5002117;28;20401;-75
2023/06/17 06:36:56;;;;;;;31.80;24.17;;;15.80;99.90;;;;;;5029363;28;20100;-76
2023/06/17 06:39:22;;;;;;;32.88;23.92;;;15.90;99.90;;;;;;5021415;28;20049;-77
2023/06/17 06:41:48;;;;;;;29.30;22.88;;;15.90;99.90;;;;;;5057766;28;20044;-77
2023/06/17 06:44:14;;;;;;;28.33;21.85;;;16.00;99.90;;;;;;5005123;28;20128;-76
2023/06/17 06:46:40;;;;;;;31.05;22.23;;;16.00;99.90;;;;;;5029116;28;20052;-76
2023/06/17 06:49:05;;;;;;;30.60;22.17;;;16.10;99.90;;;;;;5006226;28;20065;-76
2023/06/17 06:51:32;;;;;;;25.90;22.23;;;16.20;99.90;;;;;;5011978;28;20064;-75
2023/06/17 06:53:58;;;;;;;30.50;23.38;;;16.20;99.90;;;;;;5042124;28;20050;-76
2023/06/17 06:56:25;;;;;;;29.30;21.95;;;16.20;99.90;;;;;;5022827;28;20074;-76
2023/06/17 06:58:51;;;;;;;27.33;22.35;;;16.20;99.90;;;;;;5026109;28;20070;-76
2023/06/17 07:01:16;;;;;;;27.67;22.83;;;16.30;99.90;;;;;;5019243;28;20045;-76
2023/06/17 07:03:42;;;;;;;28.73;22.73;;;16.20;99.90;;;;;;5023973;28;20044;-76
2023/06/17 07:06:08;;;;;;;26.55;21.48;;;16.20;99.90;;;;;;5036381;28;20053;-75
2023/06/17 07:08:34;;;;;;;30.25;22.13;;;16.10;99.90;;;;;;5041433;28;20044;-75
2023/06/17 07:11:00;;;;;;;26.38;21.75;;;16.30;99.90;;;;;;5020150;28;20044;-77
2023/06/17 07:13:26;;;;;;;29.63;23.13;;;16.30;99.90;;;;;;5029634;28;20095;-76
2023/06/17 07:15:52;;;;;;;26.60;21.48;;;16.40;99.90;;;;;;5007058;28;20037;-76
2023/06/17 07:18:18;;;;;;;27.08;21.55;;;16.40;99.90;;;;;;5038868;28;20132;-77
2023/06/17 07:20:44;;;;;;;28.52;21.70;;;16.40;99.90;;;;;;5019774;28;20087;-77
2023/06/17 07:23:09;;;;;;;27.40;22.08;;;16.40;99.90;;;;;;5024216;28;20044;-76
2023/06/17 07:25:36;;;;;;;27.40;22.55;;;16.40;99.90;;;;;;5035723;28;20049;-76
2023/06/17 07:28:03;;;;;;;28.67;22.15;;;16.40;99.90;;;;;;5039426;28;20059;-77
2023/06/17 07:30:29;;;;;;;28.88;23.05;;;16.40;99.90;;;;;;5004199;28;20089;-77
2023/06/17 07:32:55;;;;;;;26.15;21.25;;;16.40;99.90;;;;;;5042129;28;20059;-77
2023/06/17 07:35:21;;;;;;;30.17;21.75;;;16.50;99.90;;;;;;5026186;28;20044;-77
2023/06/17 07:37:51;;;;;;;27.83;21.67;;;16.60;99.90;;;;;;5024712;28;20054;-77
2023/06/17 07:40:17;;;;;;;25.92;21.73;;;16.70;99.90;;;;;;5041421;28;20037;-78
2023/06/17 07:42:43;;;;;;;27.85;21.55;;;16.60;99.90;;;;;;5044529;28;20029;-77
2023/06/17 07:45:10;;;;;;;30.10;21.90;;;16.70;99.90;;;;;;5003339;28;20451;-78
2023/06/17 07:47:36;;;;;;;27.75;21.70;;;16.70;99.90;;;;;;5025565;28;20045;-78
2023/06/17 07:50:04;;;;;;;25.30;18.95;;;16.80;99.90;;;;;;5042024;28;20542;-76
2023/06/17 07:52:31;;;;;;;29.30;20.63;;;17.00;99.90;;;;;;5013351;28;20703;-76
2023/06/17 07:54:57;;;;;;;22.90;19.27;;;17.20;99.90;;;;;;5021102;28;20128;-74
2023/06/17 07:57:23;;;;;;;26.85;21.52;;;17.40;99.90;;;;;;5023868;28;20087;-76
2023/06/17 07:59:49;;;;;;;28.10;20.55;;;17.40;99.90;;;;;;5021103;28;20040;-76
2023/06/17 08:02:15;;;;;;;23.92;19.38;;;17.50;99.90;;;;;;5022842;28;20131;-76
2023/06/17 08:04:41;;;;;;;25.15;20.08;;;17.50;99.90;;;;;;5022396;28;20056;-77
2023/06/17 08:07:07;;;;;;;26.02;19.23;;;17.40;99.90;;;;;;5028218;28;20060;-77
2023/06/17 08:09:33;;;;;;;22.45;19.17;;;17.40;99.90;;;;;;5005915;28;20396;-77
2023/06/17 08:11:58;;;;;;;22.00;19.63;;;17.70;99.90;;;;;;5040643;28;20052;-77
2023/06/17 08:14:24;;;;;;;22.75;18.88;;;18.10;99.90;;;;;;5003095;28;20092;-77
2023/06/17 08:16:50;;;;;;;23.50;18.23;;;18.40;99.90;;;;;;5019625;28;20621;-78
2023/06/17 08:19:16;;;;;;;20.20;17.35;;;18.50;99.90;;;;;;5008258;28;20574;-77
2023/06/17 08:21:42;;;;;;;21.42;18.20;;;18.40;99.90;;;;;;5005880;28;20052;-77
2023/06/17 08:24:18;;;;;;;23.08;17.42;;;18.50;99.90;;;;;;5019381;28;20041;-77
2023/06/17 08:26:44;;;;;;;22.90;16.67;;;18.60;99.90;;;;;;5013827;28;20044;-76
2023/06/17 08:29:11;;;;;;;22.35;17.15;;;18.60;99.90;;;;;;5039830;28;20391;-76
2023/06/17 08:31:37;;;;;;;21.90;16.02;;;18.80;99.90;;;;;;5020033;28;20036;-76
2023/06/17 08:34:02;;;;;;;22.52;16.00;;;18.70;99.90;;;;;;5007420;28;20393;-76
2023/06/17 08:36:28;;;;;;;22.77;17.20;;;18.60;99.90;;;;;;5019088;28;20061;-76
2023/06/17 08:38:54;;;;;;;562.78;68.28;;;18.80;99.90;;;;;;5007547;28;20099;-76
2023/06/17 08:41:20;;;;;;;21.13;15.20;;;18.90;99.90;;;;;;4999472;28;20045;-76
2023/06/17 08:43:51;;;;;;;19.02;15.30;;;19.30;99.90;;;;;;5012219;28;20097;-76
2023/06/17 08:46:18;;;;;;;19.67;15.10;;;19.50;99.90;;;;;;5034526;28;20076;-75
2023/06/17 08:48:46;;;;;;;20.17;15.70;;;19.80;99.90;;;;;;5031978;28;20049;-74
2023/06/17 08:51:12;;;;;;;20.08;15.63;;;20.00;99.90;;;;;;5000563;28;20566;-74
2023/06/17 08:53:40;;;;;;;17.90;15.43;;;19.90;99.90;;;;;;5007044;28;20049;-77
2023/06/17 08:56:06;;;;;;;17.20;14.73;;;20.10;99.90;;;;;;5023316;28;20076;-77
2023/06/17 08:58:31;;;;;;;19.08;14.57;;;20.00;99.90;;;;;;5032325;28;20048;-77
2023/06/17 09:01:05;;;;;;;16.05;13.82;;;20.20;99.90;;;;;;5052042;22;20045;-79
2023/06/17 09:03:36;;;;;;;20.38;13.85;;;20.40;99.90;;;;;;5021271;28;20041;-81
2023/06/17 09:06:24;;;;;;;18.20;12.65;;;20.60;99.90;;;;;;5065522;28;20048;-82
2023/06/17 09:08:51;;;;;;;15.90;13.38;;;20.90;99.90;;;;;;5046639;28;20047;-81
2023/06/17 09:11:21;;;;;;;16.13;13.27;;;21.10;99.90;;;;;;5041571;22;20057;-73
2023/06/17 09:13:50;;;;;;;15.52;12.98;;;21.20;99.90;;;;;;5059099;28;20131;-73
2023/06/17 09:16:26;;;;;;;16.50;12.45;;;21.40;99.90;;;;;;5034436;28;20566;-73
2023/06/17 09:18:56;;;;;;;17.50;13.20;;;21.60;99.90;;;;;;5058484;28;20501;-73
2023/06/17 09:21:23;;;;;;;14.63;12.88;;;21.60;99.90;;;;;;5040512;28;20049;-73
2023/06/17 09:23:53;;;;;;;16.23;12.35;;;21.80;99.90;;;;;;5057497;28;20040;-73
2023/06/17 09:26:21;;;;;;;14.23;12.32;;;22.00;99.90;;;;;;5040373;28;20040;-73
2023/06/17 09:28:47;;;;;;;17.10;12.45;;;21.80;99.90;;;;;;5042282;28;20057;-73
2023/06/17 09:31:13;;;;;;;15.18;11.80;;;21.70;99.90;;;;;;5059571;28;20153;-73
2023/06/17 09:33:44;;;;;;;13.82;11.88;;;21.80;99.90;;;;;;5056503;28;20032;-73
2023/06/17 09:36:10;;;;;;;;;;;21.90;99.90;;;;;;5057216;28;20492;-73
2023/06/17 09:38:39;;;;;;;15.10;11.25;;;22.10;99.90;;;;;;5061313;28;19935;-73
2023/06/17 09:41:05;;;;;;;14.20;11.98;;;22.30;99.90;;;;;;5057499;28;20037;-73
2023/06/17 09:43:31;;;;;;;13.55;11.07;;;22.50;99.90;;;;;;5058103;28;20101;-73
2023/06/17 09:45:59;;;;;;;14.00;11.13;;;22.70;99.90;;;;;;5043238;28;20036;-72
2023/06/17 09:48:32;;;;;;;14.75;11.73;;;22.80;99.90;;;;;;5040943;28;20041;-73
2023/06/17 09:50:59;;;;;;;13.95;11.80;;;23.00;99.90;;;;;;5023335;28;20044;-72
2023/06/17 09:53:29;;;;;;;14.57;11.32;;;23.10;99.90;;;;;;5025268;28;20043;-72
2023/06/17 09:55:57;;;;;;;12.48;10.48;;;23.30;99.90;;;;;;5042070;28;20840;-72
2023/06/17 09:58:28;;;;;;;11.90;10.65;;;23.40;99.90;;;;;;5057370;28;20518;-72
2023/06/17 10:01:39;;;;;;;19.08;11.10;;;23.50;99.90;;;;;;5040228;28;20043;-72
2023/06/17 10:04:07;;;;;;;13.07;10.07;;;23.60;99.90;;;;;;5044157;28;20834;-72
2023/06/17 10:06:35;;;;;;;12.55;10.27;;;23.40;99.90;;;;;;5054183;28;20041;-72
2023/06/17 10:09:06;;;;;;;11.57;10.02;;;23.40;99.90;;;;;;5042789;28;20398;-72
2023/06/17 10:11:34;;;;;;;12.27;10.38;;;23.40;99.90;;;;;;5039722;28;20064;-71
2023/06/17 10:14:06;;;;;;;14.00;10.80;;;23.50;99.90;;;;;;5033026;28;20364;-72
2023/06/17 10:16:36;;;;;;;14.43;11.40;;;23.70;99.90;;;;;;5031896;28;20075;-72
2023/06/17 10:19:05;;;;;;;12.20;10.57;;;23.90;99.90;;;;;;5045298;28;20041;-72
2023/06/17 10:21:33;;;;;;;16.73;12.07;;;24.00;99.90;;;;;;5033977;28;20041;-72
2023/06/17 10:24:01;;;;;;;13.57;10.75;;;24.10;99.90;;;;;;5027552;28;20052;-72
2023/06/17 10:26:29;;;;;;;10.63;9.52;;;24.30;99.90;;;;;;5009310;28;20056;-72
2023/06/17 10:28:54;;;;;;;13.90;10.60;;;24.50;99.90;;;;;;5052974;28;20133;-72
2023/06/17 10:31:27;;;;;;;11.38;9.98;;;24.30;99.90;;;;;;5032589;28;20065;-87
2023/06/17 10:33:53;;;;;;;10.85;9.75;;;24.20;99.90;;;;;;5021482;28;20088;-72
2023/06/17 10:36:23;;;;;;;12.73;9.85;;;24.40;99.90;;;;;;5033906;28;20076;-72
2023/06/17 10:39:15;;;;;;;11.27;9.32;;;24.50;99.90;;;;;;5036589;28;20041;-73
2023/06/17 10:41:40;;;;;;;16.50;9.02;;;24.40;99.90;;;;;;5030351;28;20100;-73
2023/06/17 10:44:26;;;;;;;11.57;10.15;;;24.50;99.90;;;;;;5022762;28;20049;-73
2023/06/17 10:46:51;;;;;;;11.95;10.02;;;24.50;99.90;;;;;;5044125;28;20045;-73
2023/06/17 10:49:21;;;;;;;11.40;9.70;;;24.30;99.90;;;;;;5035285;28;20119;-73
2023/06/17 10:51:47;;;;;;;10.60;9.50;;;24.30;99.90;;;;;;5048677;28;20041;-72
2023/06/17 10:54:13;;;;;;;12.02;8.68;;;24.40;99.90;;;;;;5036412;28;20512;-72
2023/06/17 10:56:52;;;;;;;9.77;8.85;;;24.70;99.90;;;;;;5019189;28;20048;-73
2023/06/17 10:59:25;;;;;;;11.27;8.95;;;25.10;99.90;;;;;;5038738;28;20072;-73
2023/06/17 11:01:52;;;;;;;10.23;9.13;;;25.30;99.90;;;;;;5017749;28;20041;-73
2023/06/17 11:04:18;;;;;;;13.02;8.82;;;25.30;99.90;;;;;;5045872;28;20033;-73
2023/06/17 11:06:47;;;;;;;9.90;8.90;;;25.30;99.90;;;;;;5017621;28;20073;-73
2023/06/17 11:09:13;;;;;;;9.10;8.20;;;25.30;99.90;;;;;;5024864;28;20037;-72
2023/06/17 11:11:39;;;;;;;9.75;8.82;;;25.40;99.90;;;;;;5024601;28;20088;-71
2023/06/17 11:14:05;;;;;;;9.75;8.82;;;25.50;99.00;;;;;;5038237;28;20047;-73
2023/06/17 11:16:32;;;;;;;9.90;8.93;;;25.70;98.80;;;;;;5041900;28;20041;-73
2023/06/17 11:18:59;;;;;;;9.20;8.30;;;25.90;93.60;;;;;;5050833;28;20052;-73
2023/06/17 11:21:25;;;;;;;10.70;8.68;;;26.10;90.30;;;;;;5034617;28;20040;-73
2023/06/17 11:23:52;;;;;;;9.10;8.10;;;26.10;85.60;;;;;;5023346;28;20103;-73
2023/06/17 11:26:18;;;;;;;12.77;8.32;;;26.20;86.70;;;;;;5015376;28;20042;-73
2023/06/17 11:28:44;;;;;;;9.60;8.60;;;26.30;84.90;;;;;;5025576;28;20072;-71
2023/06/17 11:31:10;;;;;;;9.27;8.23;;;26.30;82.50;;;;;;5006642;28;20100;-72
2023/06/17 11:33:36;;;;;;;8.95;8.15;;;26.10;76.40;;;;;;5051345;28;20040;-72
2023/06/17 11:36:07;;;;;;;10.23;8.77;;;26.10;77.80;;;;;;5065604;28;20025;-72
2023/06/17 11:38:33;;;;;;;12.43;8.98;;;26.10;77.10;;;;;;5051316;28;20045;-72
2023/06/17 11:40:59;;;;;;;10.35;8.57;;;26.40;79.00;;;;;;5027211;28;20064;-72
2023/06/17 11:43:26;;;;;;;10.77;9.00;;;26.40;78.50;;;;;;5022451;28;20598;-72
2023/06/17 11:45:58;;;;;;;8.82;7.93;;;26.30;78.60;;;;;;5045395;28;20040;-72
2023/06/17 11:48:34;;;;;;;10.27;8.10;;;26.30;78.10;;;;;;5035787;28;20132;-72
2023/06/17 11:51:00;;;;;;;25.42;13.20;;;26.40;76.00;;;;;;5030072;28;20557;-72
2023/06/17 11:53:30;;;;;;;10.27;8.32;;;26.50;78.20;;;;;;5036731;28;20384;-72
2023/06/17 11:56:00;;;;;;;9.10;7.95;;;26.70;74.70;;;;;;5008674;28;20060;-72
2023/06/17 11:58:25;;;;;;;13.10;8.43;;;26.70;74.60;;;;;;5008753;28;20048;-71
2023/06/17 12:00:52;;;;;;;8.65;7.65;;;26.90;73.70;;;;;;4989463;28;20041;-72
2023/06/17 12:03:18;;;;;;;10.02;7.95;;;26.90;73.90;;;;;;5047458;28;20041;-71
2023/06/17 12:05:44;;;;;;;9.55;8.55;;;27.20;73.50;;;;;;5029599;28;20128;-72
2023/06/17 12:08:10;;;;;;;13.02;8.35;;;27.20;71.40;;;;;;5060389;28;20045;-72
2023/06/17 12:10:38;;;;;;;10.77;8.30;;;27.40;72.70;;;;;;5019613;28;20091;-71
2023/06/17 12:13:10;;;;;;;9.05;8.15;;;27.50;71.90;;;;;;5054112;28;20053;-71
2023/06/17 12:15:36;;;;;;;8.75;7.90;;;27.30;71.10;;;;;;5031030;28;20056;-72
2023/06/17 12:18:12;;;;;;;11.50;8.27;;;27.20;70.00;;;;;;5064128;28;20044;-71
2023/06/17 12:20:47;;;;;;;10.88;8.25;;;27.20;70.80;;;;;;5026875;28;20049;-70
2023/06/17 12:23:14;;;;;;;8.25;7.32;;;27.40;71.30;;;;;;5044203;28;20071;-72
2023/06/17 12:25:40;;;;;;;8.32;7.50;;;27.20;69.80;;;;;;5039398;28;20048;-71
2023/06/17 12:28:06;;;;;;;10.15;7.88;;;27.30;70.20;;;;;;5054726;28;20200;-71
2023/06/17 12:30:35;;;;;;;8.85;7.80;;;27.40;70.40;;;;;;5036416;28;20067;-72
2023/06/17 12:33:01;;;;;;;10.57;7.93;;;27.50;68.50;;;;;;5043565;28;20508;-72